createdAt,value
2023-01-20T00:02:05.428Z,0.90
2023-01-20T00:04:33.448Z,0.80
2023-01-20T00:07:01.469Z,0.90
2023-01-20T00:09:30.974Z,0.90
2023-01-20T00:11:59.049Z,0.90
2023-01-20T00:14:27.808Z,0.80
2023-01-20T00:16:57.439Z,0.80
2023-01-20T00:19:25.646Z,0.80
2023-01-20T00:21:53.736Z,0.80
2023-01-20T00:24:21.870Z,0.70
2023-01-20T00:26:51.272Z,0.80
2023-01-20T00:29:19.372Z,0.80
2023-01-20T00:31:47.520Z,0.80
2023-01-20T00:34:15.680Z,0.90
2023-01-20T00:36:43.716Z,0.90
2023-01-20T00:39:11.755Z,0.90
2023-01-20T00:41:39.813Z,0.90
2023-01-20T00:44:09.211Z,0.90
2023-01-20T00:46:37.294Z,0.90
2023-01-20T00:49:05.419Z,0.90
2023-01-20T00:51:33.512Z,0.90
2023-01-20T00:54:01.568Z,0.90
2023-01-20T00:56:29.675Z,0.90
2023-01-20T00:58:57.802Z,0.90
2023-01-20T01:01:27.345Z,0.90
2023-01-20T01:03:55.700Z,1.00
2023-01-20T01:06:23.901Z,1.00
2023-01-20T01:08:53.076Z,1.00
2023-01-20T01:11:21.163Z,1.00
2023-01-20T01:13:49.264Z,1.00
2023-01-20T01:16:17.669Z,1.00
2023-01-20T01:18:47.182Z,1.00
2023-01-20T01:21:17.374Z,1.00
2023-01-20T01:23:45.794Z,0.90
2023-01-20T01:26:14.004Z,0.90
2023-01-20T01:28:42.256Z,0.90
2023-01-20T01:31:11.201Z,0.90
2023-01-20T01:33:39.490Z,1.00
2023-01-20T01:36:12.143Z,0.90
2023-01-20T01:38:40.212Z,1.00
2023-01-20T01:41:08.362Z,0.90
2023-01-20T01:43:37.926Z,0.90
2023-01-20T01:46:07.516Z,0.90
2023-01-20T01:48:38.274Z,0.90
2023-01-20T01:51:12.474Z,0.90
2023-01-20T01:53:44.812Z,0.90
2023-01-20T01:56:14.015Z,0.90
2023-01-20T01:58:46.417Z,1.00
2023-01-20T02:01:14.814Z,1.00
2023-01-20T02:03:49.213Z,0.90
2023-01-20T02:06:20.916Z,1.00
2023-01-20T02:08:49.944Z,1.00
2023-01-20T02:11:18.000Z,1.00
2023-01-20T02:13:46.298Z,1.00
2023-01-20T02:16:19.173Z,1.00
2023-01-20T02:19:00.010Z,1.00
2023-01-20T02:22:01.511Z,1.00
2023-01-20T02:25:08.109Z,1.00
2023-01-20T02:27:54.481Z,1.00
2023-01-20T02:30:49.951Z,1.00
2023-01-20T02:33:24.063Z,0.90
2023-01-20T02:35:56.796Z,1.00
2023-01-20T02:38:30.798Z,0.90
2023-01-20T02:41:07.932Z,1.00
2023-01-20T02:43:42.591Z,1.00
2023-01-20T02:46:15.170Z,0.90
2023-01-20T02:48:47.818Z,0.90
2023-01-20T02:51:21.116Z,1.00
2023-01-20T02:53:52.753Z,1.00
2023-01-20T02:56:23.694Z,1.00
2023-01-20T02:58:53.394Z,1.00
2023-01-20T03:06:47.775Z,1.00
2023-01-20T03:09:19.420Z,1.00
2023-01-20T03:11:54.365Z,1.00
2023-01-20T03:14:22.785Z,1.00
2023-01-20T03:16:51.212Z,1.00
2023-01-20T03:19:20.790Z,1.00
2023-01-20T03:21:50.332Z,1.00
2023-01-20T03:24:18.504Z,1.00
2023-01-20T03:26:47.396Z,1.00
2023-01-20T03:29:18.373Z,1.00
2023-01-20T03:31:49.957Z,1.00
2023-01-20T03:34:22.294Z,1.00
2023-01-20T03:36:53.280Z,1.00
2023-01-20T03:39:22.236Z,0.90
2023-01-20T03:42:01.024Z,0.90
2023-01-20T03:44:38.255Z,0.90
2023-01-20T03:47:12.818Z,0.90
2023-01-20T03:49:47.217Z,1.00
2023-01-20T03:52:23.534Z,1.00
2023-01-20T03:55:16.725Z,0.90
2023-01-20T03:57:52.252Z,0.90
2023-01-20T04:00:22.716Z,0.90
2023-01-20T04:02:51.579Z,0.90
2023-01-20T04:05:19.868Z,0.90
2023-01-20T04:07:50.958Z,0.90
2023-01-20T04:10:20.328Z,0.90
2023-01-20T04:12:48.411Z,0.90
2023-01-20T04:15:17.992Z,0.90
2023-01-20T04:17:46.271Z,0.90
2023-01-20T04:20:15.837Z,0.90
2023-01-20T04:22:50.173Z,0.90
2023-01-20T04:25:24.987Z,0.90
2023-01-20T04:27:53.229Z,0.90
2023-01-20T04:30:21.387Z,0.90
2023-01-20T04:32:49.565Z,0.90
2023-01-20T04:35:19.544Z,0.90
2023-01-20T04:37:49.083Z,0.90
2023-01-20T04:40:17.471Z,0.90
2023-01-20T04:42:45.595Z,0.90
2023-01-20T04:45:16.445Z,0.90
2023-01-20T04:47:45.215Z,0.90
2023-01-20T04:50:15.268Z,0.90
2023-01-20T04:52:43.494Z,0.90
2023-01-20T04:55:13.922Z,0.90
2023-01-20T04:57:42.214Z,0.90
2023-01-20T05:00:14.902Z,0.90
2023-01-20T05:02:43.052Z,0.90
2023-01-20T05:05:11.375Z,0.90
2023-01-20T05:07:39.559Z,0.90
2023-01-20T05:10:08.787Z,0.90
2023-01-20T05:12:38.207Z,0.90
2023-01-20T05:15:07.444Z,0.80
2023-01-20T05:17:50.676Z,0.80
2023-01-20T05:20:20.407Z,0.80
2023-01-20T05:22:48.968Z,0.80
2023-01-20T05:25:17.285Z,0.80
2023-01-20T05:27:46.806Z,0.80
2023-01-20T05:30:15.338Z,0.70
2023-01-20T05:32:43.515Z,0.70
2023-01-20T05:35:11.989Z,0.70
2023-01-20T05:37:40.255Z,0.70
2023-01-20T05:40:09.529Z,0.70
2023-01-20T05:42:37.639Z,0.70
2023-01-20T05:45:09.273Z,0.70
2023-01-20T05:47:37.517Z,0.70
2023-01-20T05:50:06.312Z,0.70
2023-01-20T05:52:34.451Z,0.70
2023-01-20T05:55:02.604Z,0.70
2023-01-20T05:57:30.693Z,0.70
2023-01-20T05:59:58.897Z,0.70
2023-01-20T06:02:30.911Z,0.70
2023-01-20T06:05:01.912Z,0.70
2023-01-20T06:07:30.885Z,0.70
2023-01-20T06:09:59.459Z,0.70
2023-01-20T06:12:30.513Z,0.70
2023-01-20T06:14:58.727Z,0.80
2023-01-20T06:17:28.363Z,0.80
2023-01-20T06:19:56.434Z,0.80
2023-01-20T06:22:24.662Z,0.80
2023-01-20T06:24:53.133Z,0.80
2023-01-20T06:27:23.995Z,0.80
2023-01-20T06:29:52.088Z,0.80
2023-01-20T06:32:22.759Z,0.80
2023-01-20T06:34:53.116Z,0.80
2023-01-20T06:37:21.375Z,0.80
2023-01-20T06:39:49.488Z,0.80
2023-01-20T06:42:17.760Z,0.80
2023-01-20T06:44:45.815Z,0.80
2023-01-20T06:47:13.868Z,0.80
2023-01-20T06:49:41.938Z,0.80
2023-01-20T06:52:11.471Z,0.70
2023-01-20T06:54:42.411Z,0.70
2023-01-20T06:57:10.514Z,0.80
2023-01-20T06:59:38.599Z,0.70
2023-01-20T07:02:06.905Z,0.80
2023-01-20T07:04:35.072Z,0.70
2023-01-20T07:07:03.249Z,0.70
2023-01-20T07:09:35.347Z,0.70
2023-01-20T07:12:03.410Z,0.80
2023-01-20T07:14:31.499Z,0.80
2023-01-20T07:16:59.582Z,0.80
2023-01-20T07:19:27.775Z,0.80
2023-01-20T07:21:55.865Z,0.80
2023-01-20T07:24:24.301Z,0.80
2023-01-20T07:26:55.292Z,0.80
2023-01-20T07:29:23.653Z,0.80
2023-01-20T07:31:51.820Z,0.90
2023-01-20T07:34:19.995Z,0.80
2023-01-20T07:36:48.071Z,0.80
2023-01-20T07:39:20.257Z,0.90
2023-01-20T07:41:49.783Z,0.90
2023-01-20T07:44:19.301Z,0.90
2023-01-20T07:46:47.511Z,1.00
2023-01-20T07:49:15.786Z,1.00
2023-01-20T07:51:43.911Z,1.10
2023-01-20T07:54:13.185Z,1.10
2023-01-20T07:56:41.430Z,1.10
2023-01-20T07:59:11.472Z,1.10
2023-01-20T08:01:41.046Z,1.10
2023-01-20T08:04:09.313Z,1.10
2023-01-20T08:06:37.498Z,1.20
2023-01-20T08:09:05.759Z,1.10
2023-01-20T08:11:33.869Z,1.20
2023-01-20T08:14:01.973Z,1.20
2023-01-20T08:16:30.197Z,1.10
2023-01-20T08:19:00.126Z,1.10
2023-01-20T08:21:30.651Z,1.00
2023-01-20T08:24:00.460Z,1.00
2023-01-20T08:26:29.896Z,1.00
2023-01-20T08:29:02.730Z,1.00
2023-01-20T08:31:31.116Z,1.00
2023-01-20T08:34:00.736Z,1.00
2023-01-20T08:36:31.654Z,1.10
2023-01-20T08:39:02.183Z,1.10
2023-01-20T08:41:32.260Z,1.20
2023-01-20T08:44:01.653Z,1.10
2023-01-20T08:46:30.074Z,1.20
2023-01-20T08:48:58.912Z,1.20
2023-01-20T08:51:30.539Z,1.20
2023-01-20T08:53:59.271Z,1.20
2023-01-20T08:56:27.927Z,1.30
2023-01-20T08:58:57.315Z,1.30
2023-01-20T09:01:28.629Z,1.30
2023-01-20T09:04:07.427Z,1.30
2023-01-20T09:06:42.243Z,1.30
2023-01-20T09:09:12.264Z,1.30
2023-01-20T09:11:41.177Z,1.30
2023-01-20T09:14:09.308Z,1.30
2023-01-20T09:16:37.558Z,1.40
2023-01-20T09:19:05.663Z,1.30
2023-01-20T09:21:33.781Z,1.40
2023-01-20T09:24:03.225Z,1.40
2023-01-20T09:26:38.680Z,1.50
2023-01-20T09:29:12.033Z,1.40
2023-01-20T09:31:44.456Z,1.50
2023-01-20T09:34:15.370Z,1.50
2023-01-20T09:36:43.587Z,1.50
2023-01-20T09:39:32.885Z,1.40
2023-01-20T09:42:25.172Z,1.40
2023-01-20T09:44:57.521Z,1.50
2023-01-20T09:47:31.147Z,1.50
2023-01-20T09:50:54.291Z,1.60
2023-01-20T09:53:35.400Z,1.50
2023-01-20T09:56:09.974Z,1.60
2023-01-20T09:58:45.773Z,1.70
2023-01-20T10:01:20.673Z,1.70
2023-01-20T10:03:53.884Z,1.70
2023-01-20T10:06:27.523Z,1.80
2023-01-20T10:09:06.054Z,1.80
2023-01-20T10:11:42.222Z,1.70
2023-01-20T10:14:18.202Z,1.70
2023-01-20T10:16:52.564Z,1.70
2023-01-20T10:19:28.102Z,1.70
2023-01-20T10:22:04.815Z,1.80
2023-01-20T10:24:37.744Z,1.80
2023-01-20T10:27:07.360Z,1.80
2023-01-20T10:29:37.446Z,1.80
2023-01-20T10:32:11.757Z,1.90
2023-01-20T10:34:46.636Z,1.90
2023-01-20T10:37:16.363Z,1.90
2023-01-20T10:39:49.441Z,1.90
2023-01-20T10:42:20.208Z,1.90
2023-01-20T10:44:50.479Z,1.90
2023-01-20T10:47:26.069Z,2.00
2023-01-20T10:50:35.950Z,2.00
2023-01-20T10:53:33.603Z,2.00
2023-01-20T10:56:15.491Z,2.00
2023-01-20T10:58:47.099Z,2.00
2023-01-20T11:01:19.010Z,1.90
2023-01-20T11:03:49.470Z,1.90
2023-01-20T11:06:21.075Z,1.90
2023-01-20T11:08:49.383Z,1.90
2023-01-20T11:11:21.703Z,2.00
2023-01-20T11:13:52.703Z,2.00
2023-01-20T11:16:24.605Z,2.00
2023-01-20T11:19:00.851Z,2.00
2023-01-20T11:21:31.121Z,2.00
2023-01-20T11:24:00.722Z,2.10
2023-01-20T11:26:32.259Z,2.10
2023-01-20T11:29:03.036Z,2.10
2023-01-20T11:31:41.010Z,2.10
2023-01-20T11:34:23.497Z,2.10
2023-01-20T11:36:52.893Z,2.10
2023-01-20T11:39:29.097Z,2.10
2023-01-20T11:42:16.845Z,2.20
2023-01-20T11:44:48.978Z,2.20
2023-01-20T11:47:25.743Z,2.20
2023-01-20T11:50:25.802Z,2.20
2023-01-20T11:52:54.032Z,2.20
2023-01-20T11:55:24.458Z,2.30
2023-01-20T11:57:56.940Z,2.30
2023-01-20T12:00:40.025Z,2.30
2023-01-20T12:03:41.333Z,2.30
2023-01-20T12:06:16.067Z,2.30
2023-01-20T12:08:49.988Z,2.40
2023-01-20T12:11:23.469Z,2.40
2023-01-20T12:14:28.716Z,2.50
2023-01-20T12:17:18.613Z,2.40
2023-01-20T12:19:59.813Z,2.40
2023-01-20T12:22:36.116Z,2.40
2023-01-20T12:25:13.771Z,2.50
2023-01-20T12:27:50.025Z,2.60
2023-01-20T12:30:41.362Z,2.80
2023-01-20T12:33:20.761Z,2.70
2023-01-20T12:36:14.276Z,2.70
2023-01-20T12:38:52.802Z,2.60
2023-01-20T12:41:35.387Z,2.70
2023-01-20T12:44:14.327Z,2.70
2023-01-20T12:46:48.095Z,2.80
2023-01-20T12:49:30.994Z,2.80
2023-01-20T12:52:14.344Z,2.90
2023-01-20T12:55:12.597Z,2.80
2023-01-20T12:57:53.478Z,2.70
2023-01-20T13:00:43.625Z,2.60
2023-01-20T13:03:40.853Z,2.50
2023-01-20T13:06:28.954Z,2.40
2023-01-20T13:09:06.821Z,2.40
2023-01-20T13:11:50.790Z,2.50
2023-01-20T13:14:22.458Z,2.50
2023-01-20T13:16:55.589Z,2.60
2023-01-20T13:19:30.612Z,2.60
2023-01-20T13:22:12.480Z,2.60
2023-01-20T13:24:42.351Z,2.60
2023-01-20T13:27:12.090Z,2.50
2023-01-20T13:29:53.674Z,2.50
2023-01-20T13:32:35.797Z,2.50
2023-01-20T13:35:43.900Z,2.60
2023-01-20T13:38:23.858Z,2.60
2023-01-20T13:40:57.085Z,2.60
2023-01-20T13:43:47.768Z,2.50
2023-01-20T13:46:39.068Z,2.60
2023-01-20T13:49:39.564Z,2.60
2023-01-20T13:52:08.057Z,2.50
2023-01-20T13:54:48.370Z,2.60
2023-01-20T13:57:36.979Z,2.70
2023-01-20T14:00:16.588Z,2.60
2023-01-20T14:02:49.698Z,2.70
2023-01-20T14:05:32.820Z,2.70
2023-01-20T14:08:01.999Z,2.70
2023-01-20T14:10:31.513Z,2.80
2023-01-20T14:12:59.602Z,2.80
2023-01-20T14:15:36.092Z,2.80
2023-01-20T14:18:04.805Z,2.70
2023-01-20T14:20:33.354Z,2.70
2023-01-20T14:23:38.132Z,2.70
2023-01-20T14:26:13.648Z,2.70
2023-01-20T14:28:47.030Z,2.70
2023-01-20T14:31:18.533Z,2.70
2023-01-20T14:33:48.771Z,2.80
2023-01-20T14:36:19.021Z,2.70
2023-01-20T14:38:57.743Z,2.60
2023-01-20T14:41:34.025Z,2.60
2023-01-20T14:44:03.273Z,2.50
2023-01-20T14:46:34.117Z,2.60
2023-01-20T14:49:04.267Z,2.60
2023-01-20T14:51:33.036Z,2.60
2023-01-20T14:54:30.181Z,2.60
2023-01-20T14:57:01.018Z,2.50
2023-01-20T14:59:29.292Z,2.60
2023-01-20T15:02:03.486Z,2.60
2023-01-20T15:04:37.378Z,2.60
2023-01-20T15:07:05.559Z,2.70
2023-01-20T15:09:36.087Z,2.70
2023-01-20T15:12:33.997Z,2.60
2023-01-20T15:15:14.699Z,2.70
2023-01-20T15:18:05.841Z,2.70
2023-01-20T15:20:35.052Z,2.60
2023-01-20T15:23:03.633Z,2.70
2023-01-20T15:25:32.174Z,2.60
2023-01-20T15:28:01.956Z,2.60
2023-01-20T15:30:30.015Z,2.60
2023-01-20T15:32:58.088Z,2.60
2023-01-20T15:35:27.102Z,2.60
2023-01-20T15:37:55.643Z,2.70
2023-01-20T15:40:25.860Z,2.70
2023-01-20T15:42:54.888Z,2.70
2023-01-20T15:45:25.907Z,2.70
2023-01-20T15:47:54.021Z,2.70
2023-01-20T15:50:24.419Z,2.50
2023-01-20T15:52:52.901Z,2.60
2023-01-20T15:55:21.225Z,2.60
2023-01-20T15:57:52.885Z,2.70
2023-01-20T16:00:24.830Z,2.70
2023-01-20T16:02:53.291Z,2.70
2023-01-20T16:05:22.313Z,2.70
2023-01-20T16:07:50.496Z,2.80
2023-01-20T16:10:19.938Z,2.70
2023-01-20T16:12:48.462Z,2.70
2023-01-20T16:15:18.340Z,2.60
2023-01-20T16:17:47.977Z,2.60
2023-01-20T16:20:24.541Z,2.60
2023-01-20T16:22:52.765Z,2.70
2023-01-20T16:25:23.975Z,2.70
2023-01-20T16:27:52.083Z,2.70
2023-01-20T16:30:22.103Z,2.70
2023-01-20T16:32:51.572Z,2.70
2023-01-20T16:39:00.225Z,2.50
2023-01-20T16:41:30.810Z,2.40
2023-01-20T16:43:59.446Z,2.50
2023-01-20T16:46:29.739Z,2.40
2023-01-20T16:49:01.807Z,2.50
2023-01-20T16:51:30.889Z,2.50
2023-01-20T16:53:59.892Z,2.50
2023-01-20T16:56:30.618Z,2.30
2023-01-20T16:59:01.530Z,2.20
2023-01-20T17:01:32.291Z,2.20
2023-01-20T17:04:08.843Z,2.10
2023-01-20T17:06:36.976Z,2.10
2023-01-20T17:09:06.602Z,2.10
2023-01-20T17:11:36.819Z,2.00
2023-01-20T17:14:07.072Z,2.00
2023-01-20T17:16:35.928Z,2.00
2023-01-20T17:19:06.444Z,1.90
2023-01-20T17:21:38.454Z,1.90
2023-01-20T17:24:07.813Z,1.80
2023-01-20T17:26:37.155Z,1.80
2023-01-20T17:29:07.124Z,1.70
2023-01-20T17:31:36.948Z,1.70
2023-01-20T17:34:07.518Z,1.70
2023-01-20T17:36:35.679Z,1.70
2023-01-20T17:39:04.727Z,1.60
2023-01-20T17:41:33.106Z,1.60
2023-01-20T17:44:01.396Z,1.50
2023-01-20T17:46:30.677Z,1.50
2023-01-20T17:48:59.607Z,1.50
2023-01-20T17:51:30.364Z,1.50
2023-01-20T17:54:00.644Z,1.40
2023-01-20T17:56:33.023Z,1.40
2023-01-20T17:59:01.128Z,1.40
2023-01-20T18:01:31.599Z,1.30
2023-01-20T18:04:01.085Z,1.30
2023-01-20T18:06:34.952Z,1.30
2023-01-20T18:09:03.796Z,1.40
2023-01-20T18:11:35.171Z,1.30
2023-01-20T18:14:04.853Z,1.30
2023-01-20T18:16:35.486Z,1.30
2023-01-20T18:19:04.499Z,1.40
2023-01-20T18:21:35.267Z,1.40
2023-01-20T18:24:04.544Z,1.50
2023-01-20T18:26:34.603Z,1.50
2023-01-20T18:29:05.256Z,1.40
2023-01-20T18:31:34.071Z,1.40
2023-01-20T18:34:04.199Z,1.30
2023-01-20T18:36:36.110Z,1.30
2023-01-20T18:39:06.777Z,1.30
2023-01-20T18:41:37.853Z,1.30
2023-01-20T18:44:06.732Z,1.20
2023-01-20T18:46:35.215Z,1.20
2023-01-20T18:49:04.570Z,1.10
2023-01-20T18:51:34.897Z,1.20
2023-01-20T18:54:05.894Z,1.20
2023-01-20T19:00:24.609Z,1.20
2023-01-20T19:02:52.844Z,1.20
2023-01-20T19:05:21.127Z,1.20
2023-01-20T19:07:51.532Z,1.30
2023-01-20T19:18:01.769Z,1.20
2023-01-20T19:20:29.918Z,1.20
2023-01-20T19:22:59.394Z,1.10
2023-01-20T19:25:31.566Z,1.10
2023-01-20T19:27:59.655Z,1.10
2023-01-20T19:30:28.345Z,1.00
2023-01-20T19:32:56.424Z,1.00
2023-01-20T19:35:24.745Z,1.10
2023-01-20T19:37:52.944Z,1.10
2023-01-20T19:40:22.516Z,1.00
2023-01-20T19:42:52.605Z,1.00
2023-01-20T19:45:21.017Z,0.90
2023-01-20T19:47:49.349Z,0.90
2023-01-20T19:50:18.134Z,0.80
2023-01-20T19:52:46.465Z,0.80
2023-01-20T19:55:14.889Z,0.80
2023-01-20T19:57:44.374Z,0.80
2023-01-20T20:07:54.480Z,0.80
2023-01-20T20:10:22.620Z,0.80
2023-01-20T20:12:52.071Z,0.70
2023-01-20T20:15:20.197Z,0.70
2023-01-20T20:17:48.397Z,0.70
2023-01-20T20:20:17.206Z,0.70
2023-01-20T20:22:45.425Z,0.70
2023-01-20T20:25:13.508Z,0.60
2023-01-20T20:27:41.627Z,0.60
2023-01-20T20:30:12.911Z,0.60
2023-01-20T20:32:41.143Z,0.60
2023-01-20T20:35:09.640Z,0.60
2023-01-20T20:37:37.738Z,0.60
2023-01-20T20:40:06.862Z,0.60
2023-01-20T20:42:35.064Z,0.70
2023-01-20T20:45:03.325Z,0.60
2023-01-20T20:47:33.481Z,0.60
2023-01-20T20:50:01.631Z,0.60
2023-01-20T20:52:29.708Z,0.60
2023-01-20T20:54:57.832Z,0.60
2023-01-20T20:57:25.935Z,0.60
2023-01-20T20:59:59.607Z,0.60
2023-01-20T21:02:28.058Z,0.50
2023-01-20T21:04:57.607Z,0.50
2023-01-20T21:07:25.697Z,0.50
2023-01-20T21:09:53.874Z,0.50
2023-01-20T21:12:21.971Z,0.40
2023-01-20T21:14:50.116Z,0.40
2023-01-20T21:17:18.505Z,0.40
2023-01-20T21:19:52.096Z,0.30
2023-01-20T21:22:21.805Z,0.20
2023-01-20T21:24:50.849Z,0.20
2023-01-20T21:27:19.031Z,0.20
2023-01-20T21:29:47.107Z,0.20
2023-01-20T21:32:15.896Z,0.20
2023-01-20T21:34:44.066Z,0.30
2023-01-20T21:37:12.299Z,0.20
2023-01-20T21:39:41.735Z,0.30
2023-01-20T21:42:09.863Z,0.20
2023-01-20T21:44:36.936Z,0.20
2023-01-20T21:47:07.984Z,0.30
2023-01-20T21:50:02.120Z,0.30
2023-01-20T21:52:42.381Z,0.30
2023-01-20T21:55:15.934Z,0.30
2023-01-20T21:57:44.264Z,0.30
2023-01-20T22:00:14.360Z,0.30
2023-01-20T22:02:44.764Z,0.20
2023-01-20T22:05:13.302Z,0.30
2023-01-20T22:07:41.444Z,0.20
2023-01-20T22:10:12.859Z,0.20
2023-01-20T22:12:41.014Z,0.20
2023-01-20T22:15:09.940Z,0.20
2023-01-20T22:17:37.996Z,0.20
2023-01-20T22:20:06.945Z,0.20
2023-01-20T22:22:34.981Z,0.20
2023-01-20T22:25:03.704Z,0.20
2023-01-20T22:27:33.175Z,0.20
2023-01-20T22:30:01.210Z,0.20
2023-01-20T22:32:29.298Z,0.20
2023-01-20T22:34:57.461Z,0.20
2023-01-20T22:37:25.790Z,0.20
2023-01-20T22:39:53.843Z,0.20
2023-01-20T22:42:21.911Z,0.20
2023-01-20T22:44:51.368Z,0.20
2023-01-20T22:47:19.518Z,0.20
2023-01-20T22:49:47.611Z,0.20
2023-01-20T22:52:15.855Z,0.20
2023-01-20T22:54:43.950Z,0.30
2023-01-20T22:57:12.050Z,0.30
2023-01-20T22:59:40.171Z,0.20
2023-01-20T23:02:09.673Z,0.20
2023-01-20T23:04:37.736Z,0.20
2023-01-20T23:07:05.810Z,0.10
2023-01-20T23:09:33.947Z,0.10
2023-01-20T23:12:02.055Z,0.10
2023-01-20T23:14:44.043Z,0.10
2023-01-20T23:17:13.462Z,0.00
2023-01-20T23:19:41.541Z,0.10
2023-01-20T23:22:09.827Z,0.00
2023-01-20T23:24:37.884Z,0.00
2023-01-20T23:31:01.533Z,-0.10
2023-01-20T23:33:31.609Z,0.00
2023-01-20T23:43:41.575Z,0.00
2023-01-20T23:46:10.213Z,-0.10
2023-01-20T23:48:40.385Z,-0.10
2023-01-20T23:51:08.624Z,-0.10
2023-01-20T23:53:40.390Z,-0.20
2023-01-20T23:56:13.541Z,-0.20
2023-01-20T23:58:42.878Z,-0.20
